createdAt,value
2023-03-31T00:01:33.675Z,23.64
2023-03-31T00:11:39.137Z,23.67
2023-03-31T00:21:44.059Z,23.59
2023-03-31T00:31:49.521Z,23.55
2023-03-31T00:41:54.501Z,23.51
2023-03-31T00:51:59.909Z,23.46
2023-03-31T01:02:05.311Z,23.46
2023-03-31T01:12:10.395Z,23.46
2023-03-31T01:22:15.749Z,23.44
2023-03-31T01:32:20.907Z,23.39
2023-03-31T01:42:26.150Z,23.36
2023-03-31T01:52:31.528Z,23.33
2023-03-31T02:02:36.646Z,23.33
2023-03-31T02:12:41.822Z,23.32
2023-03-31T02:22:46.834Z,23.29
2023-03-31T02:32:51.994Z,23.28
2023-03-31T02:42:57.033Z,23.28
2023-03-31T02:53:02.509Z,23.26
2023-03-31T03:03:07.904Z,23.24
2023-03-31T03:13:12.860Z,23.23
2023-03-31T03:23:18.296Z,23.21
2023-03-31T03:33:23.751Z,23.21
2023-03-31T03:43:29.273Z,23.21
2023-03-31T03:53:34.431Z,23.20
2023-03-31T04:03:39.778Z,23.17
2023-03-31T04:13:45.077Z,23.18
2023-03-31T04:23:50.332Z,23.18
2023-03-31T04:33:55.646Z,23.16
2023-03-31T04:44:00.577Z,23.14
2023-03-31T04:54:05.820Z,23.13
2023-03-31T05:04:11.426Z,23.13
2023-03-31T05:14:16.833Z,23.12
2023-03-31T05:24:22.108Z,23.10
2023-03-31T05:34:27.306Z,23.10
2023-03-31T05:44:32.687Z,23.10
2023-03-31T05:54:38.219Z,23.10
2023-03-31T06:04:43.368Z,23.16
2023-03-31T06:14:49.222Z,23.15
2023-03-31T06:24:54.349Z,23.21
2023-03-31T06:35:00.242Z,23.18
2023-03-31T06:45:05.139Z,23.15
2023-03-31T06:55:10.453Z,23.15
2023-03-31T07:05:15.693Z,23.10
2023-03-31T07:15:21.103Z,23.06
2023-03-31T07:25:26.514Z,23.04
2023-03-31T07:35:32.110Z,23.00
2023-03-31T07:45:37.475Z,22.98
2023-03-31T07:55:42.628Z,22.96
2023-03-31T08:05:50.498Z,22.97
2023-03-31T08:15:57.746Z,22.95
2023-03-31T08:26:02.922Z,22.94
2023-03-31T08:36:08.251Z,22.94
2023-03-31T08:46:14.198Z,22.91
2023-03-31T08:56:19.274Z,22.91
2023-03-31T09:06:24.566Z,22.91
2023-03-31T09:16:29.805Z,22.92
2023-03-31T09:26:35.177Z,22.91
2023-03-31T09:36:40.530Z,22.90
2023-03-31T09:46:46.003Z,22.88
2023-03-31T09:56:51.348Z,22.87
2023-03-31T10:06:56.888Z,22.90
2023-03-31T10:17:02.258Z,22.86
2023-03-31T10:27:07.483Z,22.90
2023-03-31T10:37:12.960Z,22.99
2023-03-31T10:47:18.396Z,23.03
2023-03-31T10:57:23.678Z,23.09
2023-03-31T11:07:29.582Z,23.10
2023-03-31T11:17:34.931Z,23.11
2023-03-31T11:27:40.126Z,23.11
2023-03-31T11:37:45.300Z,23.13
2023-03-31T11:47:50.710Z,23.15
2023-03-31T11:57:55.997Z,23.17
2023-03-31T12:08:01.861Z,23.24
2023-03-31T12:18:07.392Z,23.26
2023-03-31T12:28:12.558Z,23.26
2023-03-31T12:38:17.917Z,23.32
2023-03-31T12:48:23.334Z,23.32
2023-03-31T12:58:30.222Z,23.32
2023-03-31T13:08:39.324Z,23.33
2023-03-31T13:18:44.447Z,23.35
2023-03-31T13:28:50.114Z,23.37
2023-03-31T13:38:55.100Z,23.37
2023-03-31T13:49:00.227Z,23.36
2023-03-31T13:59:05.530Z,23.35
2023-03-31T14:09:10.659Z,23.39
2023-03-31T14:19:16.177Z,23.37
2023-03-31T14:29:21.388Z,23.37
2023-03-31T14:39:26.673Z,23.40
2023-03-31T14:49:31.929Z,23.39
2023-03-31T14:59:37.172Z,23.38
2023-03-31T15:09:42.069Z,23.38
2023-03-31T15:19:47.334Z,23.41
2023-03-31T15:29:52.473Z,23.39
2023-03-31T15:39:58.230Z,23.41
2023-03-31T15:50:03.671Z,23.40
2023-03-31T16:00:08.992Z,23.40
2023-03-31T16:10:14.021Z,23.44
2023-03-31T16:20:19.596Z,23.43
2023-03-31T16:30:25.403Z,23.45
2023-03-31T16:40:31.753Z,23.40
2023-03-31T16:50:37.055Z,23.35
2023-03-31T17:00:42.400Z,23.30
2023-03-31T17:10:48.014Z,23.21
2023-03-31T17:20:53.312Z,23.19
2023-03-31T17:30:58.715Z,23.23
2023-03-31T17:41:04.177Z,23.22
2023-03-31T17:51:10.913Z,23.20
2023-03-31T18:01:16.151Z,23.18
2023-03-31T18:11:21.276Z,23.16
2023-03-31T18:21:26.564Z,23.18
2023-03-31T18:31:31.855Z,23.15
2023-03-31T18:41:37.104Z,23.13
2023-03-31T18:51:42.863Z,23.26
2023-03-31T19:01:48.424Z,23.31
2023-03-31T19:11:54.085Z,23.37
2023-03-31T19:21:59.568Z,23.35
2023-03-31T19:32:05.086Z,23.32
2023-03-31T19:42:10.298Z,23.36
2023-03-31T19:52:15.556Z,23.39
2023-03-31T20:03:40.807Z,23.41
2023-03-31T20:13:45.081Z,23.42
2023-03-31T20:23:50.148Z,23.47
2023-03-31T20:33:55.318Z,23.54
2023-03-31T20:44:00.629Z,23.58
2023-03-31T20:54:05.617Z,23.56
2023-03-31T21:04:11.140Z,23.60
2023-03-31T21:14:16.447Z,23.60
2023-03-31T21:24:21.935Z,23.60
2023-03-31T21:34:27.275Z,23.59
2023-03-31T21:44:32.352Z,23.64
2023-03-31T21:54:37.757Z,23.65
2023-03-31T22:04:43.334Z,23.65
2023-03-31T22:14:48.791Z,23.69
2023-03-31T22:24:54.108Z,23.63
2023-03-31T22:34:59.892Z,23.69
2023-03-31T22:45:05.026Z,23.72
2023-03-31T22:55:10.354Z,23.70
2023-03-31T23:05:15.787Z,23.71
2023-03-31T23:15:21.275Z,23.69
2023-03-31T23:25:26.894Z,23.71
2023-03-31T23:35:32.854Z,23.71
2023-03-31T23:45:38.945Z,23.65
2023-03-31T23:55:44.249Z,23.63
